sensor_id;sensor_type;location;lat;lon;timestamp;P1;durP1;ratioP1;P2;durP2;ratioP2
4274;SDS011;2151;50.988;11.068;2023-04-25T00:01:39;126.93;;;9.17;;
4274;SDS011;2151;50.988;11.068;2023-04-25T00:04:06;127.70;;;8.87;;
4274;SDS011;2151;50.988;11.068;2023-04-25T00:06:36;132.43;;;8.53;;
4274;SDS011;2151;50.988;11.068;2023-04-25T00:09:03;125.90;;;8.60;;
4274;SDS011;2151;50.988;11.068;2023-04-25T00:11:29;125.00;;;8.40;;
4274;SDS011;2151;50.988;11.068;2023-04-25T00:13:57;126.40;;;8.70;;
4274;SDS011;2151;50.988;11.068;2023-04-25T00:16:23;127.20;;;8.60;;
4274;SDS011;2151;50.988;11.068;2023-04-25T00:18:50;127.20;;;8.47;;
4274;SDS011;2151;50.988;11.068;2023-04-25T00:21:20;127.90;;;8.63;;
4274;SDS011;2151;50.988;11.068;2023-04-25T00:23:46;126.10;;;8.30;;
4274;SDS011;2151;50.988;11.068;2023-04-25T00:26:13;126.77;;;8.90;;
4274;SDS011;2151;50.988;11.068;2023-04-25T00:28:40;126.27;;;8.33;;
4274;SDS011;2151;50.988;11.068;2023-04-25T00:31:07;127.67;;;8.80;;
4274;SDS011;2151;50.988;11.068;2023-04-25T00:33:33;128.47;;;8.80;;
4274;SDS011;2151;50.988;11.068;2023-04-25T00:36:00;130.27;;;9.10;;
4274;SDS011;2151;50.988;11.068;2023-04-25T00:38:26;123.97;;;8.37;;
4274;SDS011;2151;50.988;11.068;2023-04-25T00:40:53;125.30;;;8.60;;
4274;SDS011;2151;50.988;11.068;2023-04-25T00:43:20;127.17;;;8.33;;
4274;SDS011;2151;50.988;11.068;2023-04-25T00:45:47;126.77;;;9.00;;
4274;SDS011;2151;50.988;11.068;2023-04-25T00:48:16;126.73;;;8.53;;
4274;SDS011;2151;50.988;11.068;2023-04-25T00:50:45;127.80;;;8.90;;
4274;SDS011;2151;50.988;11.068;2023-04-25T00:53:13;128.30;;;8.40;;
4274;SDS011;2151;50.988;11.068;2023-04-25T00:55:40;125.43;;;8.40;;
4274;SDS011;2151;50.988;11.068;2023-04-25T00:58:06;126.57;;;8.50;;
4274;SDS011;2151;50.988;11.068;2023-04-25T01:00:33;127.97;;;8.40;;
4274;SDS011;2151;50.988;11.068;2023-04-25T01:02:59;126.87;;;8.10;;
4274;SDS011;2151;50.988;11.068;2023-04-25T01:05:26;127.67;;;9.00;;
4274;SDS011;2151;50.988;11.068;2023-04-25T01:07:53;125.30;;;8.40;;
4274;SDS011;2151;50.988;11.068;2023-04-25T01:10:19;130.20;;;9.00;;
4274;SDS011;2151;50.988;11.068;2023-04-25T01:12:46;128.90;;;8.43;;
4274;SDS011;2151;50.988;11.068;2023-04-25T01:15:12;129.27;;;8.80;;
4274;SDS011;2151;50.988;11.068;2023-04-25T01:17:39;129.20;;;8.93;;
4274;SDS011;2151;50.988;11.068;2023-04-25T01:20:07;128.90;;;8.87;;
4274;SDS011;2151;50.988;11.068;2023-04-25T01:22:35;126.47;;;8.83;;
4274;SDS011;2151;50.988;11.068;2023-04-25T01:25:02;128.80;;;9.50;;
4274;SDS011;2151;50.988;11.068;2023-04-25T01:27:28;126.97;;;8.90;;
4274;SDS011;2151;50.988;11.068;2023-04-25T01:29:55;132.10;;;9.27;;
4274;SDS011;2151;50.988;11.068;2023-04-25T01:32:22;128.20;;;8.90;;
4274;SDS011;2151;50.988;11.068;2023-04-25T01:34:49;125.90;;;8.43;;
4274;SDS011;2151;50.988;11.068;2023-04-25T01:37:16;125.97;;;8.30;;
4274;SDS011;2151;50.988;11.068;2023-04-25T01:39:42;126.80;;;8.60;;
4274;SDS011;2151;50.988;11.068;2023-04-25T01:42:13;130.17;;;8.63;;
4274;SDS011;2151;50.988;11.068;2023-04-25T01:44:39;128.27;;;9.23;;
4274;SDS011;2151;50.988;11.068;2023-04-25T01:47:06;132.50;;;9.20;;
4274;SDS011;2151;50.988;11.068;2023-04-25T01:49:32;126.83;;;9.33;;
4274;SDS011;2151;50.988;11.068;2023-04-25T01:51:59;130.63;;;8.77;;
4274;SDS011;2151;50.988;11.068;2023-04-25T01:54:25;125.10;;;8.90;;
4274;SDS011;2151;50.988;11.068;2023-04-25T01:56:52;127.90;;;9.10;;
4274;SDS011;2151;50.988;11.068;2023-04-25T01:59:18;128.97;;;9.07;;
4274;SDS011;2151;50.988;11.068;2023-04-25T02:01:46;125.70;;;9.63;;
4274;SDS011;2151;50.988;11.068;2023-04-25T02:04:13;126.63;;;9.20;;
4274;SDS011;2151;50.988;11.068;2023-04-25T02:06:39;127.57;;;9.30;;
4274;SDS011;2151;50.988;11.068;2023-04-25T02:09:06;129.33;;;9.30;;
4274;SDS011;2151;50.988;11.068;2023-04-25T02:11:32;129.33;;;9.43;;
4274;SDS011;2151;50.988;11.068;2023-04-25T02:13:59;128.60;;;8.63;;
4274;SDS011;2151;50.988;11.068;2023-04-25T02:16:25;133.30;;;9.60;;
4274;SDS011;2151;50.988;11.068;2023-04-25T02:18:51;126.87;;;9.30;;
4274;SDS011;2151;50.988;11.068;2023-04-25T02:21:19;132.27;;;9.00;;
4274;SDS011;2151;50.988;11.068;2023-04-25T02:23:45;128.67;;;8.70;;
4274;SDS011;2151;50.988;11.068;2023-04-25T02:26:15;133.33;;;9.10;;
4274;SDS011;2151;50.988;11.068;2023-04-25T02:28:41;132.10;;;9.13;;
4274;SDS011;2151;50.988;11.068;2023-04-25T02:31:08;135.20;;;9.93;;
4274;SDS011;2151;50.988;11.068;2023-04-25T02:33:34;130.57;;;9.87;;
4274;SDS011;2151;50.988;11.068;2023-04-25T02:36:01;127.60;;;8.83;;
4274;SDS011;2151;50.988;11.068;2023-04-25T02:38:27;127.80;;;9.10;;
4274;SDS011;2151;50.988;11.068;2023-04-25T02:40:53;132.97;;;9.63;;
4274;SDS011;2151;50.988;11.068;2023-04-25T02:43:20;129.70;;;9.93;;
4274;SDS011;2151;50.988;11.068;2023-04-25T02:45:46;129.17;;;9.37;;
4274;SDS011;2151;50.988;11.068;2023-04-25T02:48:13;126.83;;;9.00;;
4274;SDS011;2151;50.988;11.068;2023-04-25T02:50:39;127.77;;;8.60;;
4274;SDS011;2151;50.988;11.068;2023-04-25T02:53:06;128.30;;;9.37;;
4274;SDS011;2151;50.988;11.068;2023-04-25T02:55:32;131.97;;;9.50;;
4274;SDS011;2151;50.988;11.068;2023-04-25T02:57:59;127.37;;;9.80;;
4274;SDS011;2151;50.988;11.068;2023-04-25T03:00:25;130.03;;;9.60;;
4274;SDS011;2151;50.988;11.068;2023-04-25T03:02:52;126.97;;;8.87;;
4274;SDS011;2151;50.988;11.068;2023-04-25T03:05:18;127.20;;;9.80;;
4274;SDS011;2151;50.988;11.068;2023-04-25T03:07:45;131.50;;;9.77;;
4274;SDS011;2151;50.988;11.068;2023-04-25T03:10:11;127.80;;;8.70;;
4274;SDS011;2151;50.988;11.068;2023-04-25T03:12:38;128.90;;;9.20;;
4274;SDS011;2151;50.988;11.068;2023-04-25T03:15:05;127.43;;;9.07;;
4274;SDS011;2151;50.988;11.068;2023-04-25T03:17:31;129.97;;;10.00;;
4274;SDS011;2151;50.988;11.068;2023-04-25T03:19:58;130.73;;;9.70;;
4274;SDS011;2151;50.988;11.068;2023-04-25T03:22:24;127.87;;;8.83;;
4274;SDS011;2151;50.988;11.068;2023-04-25T03:24:50;131.37;;;9.40;;
4274;SDS011;2151;50.988;11.068;2023-04-25T03:27:17;127.87;;;9.20;;
4274;SDS011;2151;50.988;11.068;2023-04-25T03:29:43;128.90;;;9.57;;
4274;SDS011;2151;50.988;11.068;2023-04-25T03:32:10;129.03;;;9.37;;
4274;SDS011;2151;50.988;11.068;2023-04-25T03:34:36;130.30;;;9.40;;
4274;SDS011;2151;50.988;11.068;2023-04-25T03:37:03;126.53;;;9.93;;
4274;SDS011;2151;50.988;11.068;2023-04-25T03:39:29;128.17;;;9.50;;
4274;SDS011;2151;50.988;11.068;2023-04-25T03:41:56;130.83;;;9.50;;
4274;SDS011;2151;50.988;11.068;2023-04-25T03:44:22;126.83;;;8.93;;
4274;SDS011;2151;50.988;11.068;2023-04-25T03:46:50;129.27;;;9.77;;
4274;SDS011;2151;50.988;11.068;2023-04-25T03:49:17;128.90;;;9.70;;
4274;SDS011;2151;50.988;11.068;2023-04-25T03:51:44;128.20;;;9.27;;
4274;SDS011;2151;50.988;11.068;2023-04-25T03:54:11;128.93;;;9.33;;
4274;SDS011;2151;50.988;11.068;2023-04-25T03:56:38;129.17;;;10.10;;
4274;SDS011;2151;50.988;11.068;2023-04-25T03:59:04;129.40;;;9.20;;
4274;SDS011;2151;50.988;11.068;2023-04-25T04:01:30;133.47;;;9.07;;
4274;SDS011;2151;50.988;11.068;2023-04-25T04:03:57;128.00;;;8.90;;
4274;SDS011;2151;50.988;11.068;2023-04-25T04:06:24;130.90;;;9.80;;
4274;SDS011;2151;50.988;11.068;2023-04-25T04:08:51;129.67;;;9.20;;
4274;SDS011;2151;50.988;11.068;2023-04-25T04:11:17;131.80;;;8.87;;
4274;SDS011;2151;50.988;11.068;2023-04-25T04:13:44;127.10;;;9.10;;
4274;SDS011;2151;50.988;11.068;2023-04-25T04:16:10;127.47;;;9.70;;
4274;SDS011;2151;50.988;11.068;2023-04-25T04:18:37;131.67;;;9.30;;
4274;SDS011;2151;50.988;11.068;2023-04-25T04:21:03;127.70;;;9.27;;
4274;SDS011;2151;50.988;11.068;2023-04-25T04:23:30;130.17;;;9.10;;
4274;SDS011;2151;50.988;11.068;2023-04-25T04:25:57;129.77;;;9.27;;
4274;SDS011;2151;50.988;11.068;2023-04-25T04:28:23;135.60;;;8.77;;
4274;SDS011;2151;50.988;11.068;2023-04-25T04:30:50;130.20;;;8.60;;
4274;SDS011;2151;50.988;11.068;2023-04-25T04:33:17;128.67;;;9.40;;
4274;SDS011;2151;50.988;11.068;2023-04-25T04:35:45;134.10;;;9.40;;
4274;SDS011;2151;50.988;11.068;2023-04-25T04:38:13;128.50;;;9.70;;
4274;SDS011;2151;50.988;11.068;2023-04-25T04:40:41;131.37;;;9.40;;
4274;SDS011;2151;50.988;11.068;2023-04-25T04:43:11;132.70;;;9.50;;
4274;SDS011;2151;50.988;11.068;2023-04-25T04:45:37;131.57;;;8.90;;
4274;SDS011;2151;50.988;11.068;2023-04-25T04:48:06;130.87;;;10.50;;
4274;SDS011;2151;50.988;11.068;2023-04-25T04:50:33;132.73;;;9.60;;
4274;SDS011;2151;50.988;11.068;2023-04-25T04:53:00;127.43;;;9.67;;
4274;SDS011;2151;50.988;11.068;2023-04-25T04:55:26;130.80;;;8.83;;
4274;SDS011;2151;50.988;11.068;2023-04-25T04:57:52;128.17;;;8.90;;
4274;SDS011;2151;50.988;11.068;2023-04-25T05:00:19;130.53;;;10.03;;
4274;SDS011;2151;50.988;11.068;2023-04-25T05:02:47;129.33;;;9.77;;
4274;SDS011;2151;50.988;11.068;2023-04-25T05:05:13;128.07;;;9.20;;
4274;SDS011;2151;50.988;11.068;2023-04-25T05:07:40;129.20;;;8.67;;
4274;SDS011;2151;50.988;11.068;2023-04-25T05:10:06;127.60;;;9.10;;
4274;SDS011;2151;50.988;11.068;2023-04-25T05:12:33;129.67;;;9.67;;
4274;SDS011;2151;50.988;11.068;2023-04-25T05:15:02;136.93;;;10.07;;
4274;SDS011;2151;50.988;11.068;2023-04-25T05:17:28;127.50;;;9.80;;
4274;SDS011;2151;50.988;11.068;2023-04-25T05:19:55;127.00;;;9.30;;
4274;SDS011;2151;50.988;11.068;2023-04-25T05:22:22;131.10;;;9.10;;
4274;SDS011;2151;50.988;11.068;2023-04-25T05:24:49;127.37;;;8.77;;
4274;SDS011;2151;50.988;11.068;2023-04-25T05:27:18;134.47;;;8.70;;
4274;SDS011;2151;50.988;11.068;2023-04-25T05:29:45;129.57;;;9.20;;
4274;SDS011;2151;50.988;11.068;2023-04-25T05:32:11;128.13;;;8.60;;
4274;SDS011;2151;50.988;11.068;2023-04-25T05:34:38;130.07;;;9.60;;
4274;SDS011;2151;50.988;11.068;2023-04-25T05:37:04;131.57;;;9.60;;
4274;SDS011;2151;50.988;11.068;2023-04-25T05:39:31;132.77;;;9.30;;
4274;SDS011;2151;50.988;11.068;2023-04-25T05:41:57;134.40;;;8.93;;
4274;SDS011;2151;50.988;11.068;2023-04-25T05:44:26;128.47;;;9.37;;
4274;SDS011;2151;50.988;11.068;2023-04-25T05:46:53;129.80;;;8.50;;
4274;SDS011;2151;50.988;11.068;2023-04-25T05:49:19;139.73;;;9.20;;
4274;SDS011;2151;50.988;11.068;2023-04-25T05:51:45;128.27;;;9.10;;
4274;SDS011;2151;50.988;11.068;2023-04-25T05:54:12;129.13;;;9.30;;
4274;SDS011;2151;50.988;11.068;2023-04-25T05:56:38;126.80;;;8.10;;
4274;SDS011;2151;50.988;11.068;2023-04-25T05:59:04;129.57;;;8.60;;
4274;SDS011;2151;50.988;11.068;2023-04-25T06:01:32;128.30;;;7.90;;
4274;SDS011;2151;50.988;11.068;2023-04-25T06:03:58;131.97;;;9.23;;
4274;SDS011;2151;50.988;11.068;2023-04-25T06:06:25;126.27;;;7.50;;
4274;SDS011;2151;50.988;11.068;2023-04-25T06:08:53;127.10;;;9.10;;
4274;SDS011;2151;50.988;11.068;2023-04-25T06:11:19;127.47;;;8.43;;
4274;SDS011;2151;50.988;11.068;2023-04-25T06:13:46;129.17;;;7.77;;
4274;SDS011;2151;50.988;11.068;2023-04-25T06:16:12;128.17;;;8.87;;
4274;SDS011;2151;50.988;11.068;2023-04-25T06:18:39;128.60;;;8.73;;
4274;SDS011;2151;50.988;11.068;2023-04-25T06:21:06;126.47;;;8.07;;
4274;SDS011;2151;50.988;11.068;2023-04-25T06:23:32;128.47;;;8.30;;
4274;SDS011;2151;50.988;11.068;2023-04-25T06:25:59;126.20;;;8.43;;
4274;SDS011;2151;50.988;11.068;2023-04-25T06:28:25;126.57;;;8.37;;
4274;SDS011;2151;50.988;11.068;2023-04-25T06:30:52;130.27;;;8.80;;
4274;SDS011;2151;50.988;11.068;2023-04-25T06:33:18;127.00;;;8.27;;
4274;SDS011;2151;50.988;11.068;2023-04-25T06:35:44;126.00;;;8.00;;
4274;SDS011;2151;50.988;11.068;2023-04-25T06:38:11;126.97;;;8.50;;
4274;SDS011;2151;50.988;11.068;2023-04-25T06:40:38;124.50;;;7.60;;
4274;SDS011;2151;50.988;11.068;2023-04-25T06:43:04;125.17;;;7.80;;
4274;SDS011;2151;50.988;11.068;2023-04-25T06:45:31;127.07;;;7.90;;
4274;SDS011;2151;50.988;11.068;2023-04-25T06:47:57;128.17;;;8.43;;
4274;SDS011;2151;50.988;11.068;2023-04-25T06:50:24;126.10;;;8.00;;
4274;SDS011;2151;50.988;11.068;2023-04-25T06:52:50;127.27;;;7.83;;
4274;SDS011;2151;50.988;11.068;2023-04-25T06:55:17;124.47;;;7.63;;
4274;SDS011;2151;50.988;11.068;2023-04-25T06:57:43;125.13;;;8.17;;
4274;SDS011;2151;50.988;11.068;2023-04-25T07:00:09;130.87;;;8.60;;
4274;SDS011;2151;50.988;11.068;2023-04-25T07:02:37;127.80;;;8.60;;
4274;SDS011;2151;50.988;11.068;2023-04-25T07:05:03;130.27;;;8.20;;
4274;SDS011;2151;50.988;11.068;2023-04-25T07:07:30;127.47;;;8.23;;
4274;SDS011;2151;50.988;11.068;2023-04-25T07:09:56;124.60;;;7.37;;
4274;SDS011;2151;50.988;11.068;2023-04-25T07:12:23;125.37;;;7.60;;
4274;SDS011;2151;50.988;11.068;2023-04-25T07:14:49;123.73;;;6.97;;
4274;SDS011;2151;50.988;11.068;2023-04-25T07:17:16;125.23;;;6.83;;
4274;SDS011;2151;50.988;11.068;2023-04-25T07:19:43;124.50;;;7.40;;
4274;SDS011;2151;50.988;11.068;2023-04-25T07:22:09;125.70;;;7.50;;
4274;SDS011;2151;50.988;11.068;2023-04-25T07:24:36;125.00;;;7.03;;
4274;SDS011;2151;50.988;11.068;2023-04-25T07:27:02;123.77;;;7.07;;
4274;SDS011;2151;50.988;11.068;2023-04-25T07:29:29;125.00;;;7.37;;
4274;SDS011;2151;50.988;11.068;2023-04-25T07:31:57;124.07;;;8.17;;
4274;SDS011;2151;50.988;11.068;2023-04-25T07:34:23;130.37;;;7.70;;
4274;SDS011;2151;50.988;11.068;2023-04-25T07:36:50;126.17;;;7.40;;
4274;SDS011;2151;50.988;11.068;2023-04-25T07:39:16;123.27;;;7.20;;
4274;SDS011;2151;50.988;11.068;2023-04-25T07:41:43;123.27;;;7.20;;
4274;SDS011;2151;50.988;11.068;2023-04-25T07:44:09;127.37;;;7.33;;
4274;SDS011;2151;50.988;11.068;2023-04-25T07:46:35;125.87;;;7.47;;
4274;SDS011;2151;50.988;11.068;2023-04-25T07:49:02;123.83;;;7.00;;
4274;SDS011;2151;50.988;11.068;2023-04-25T07:51:28;124.63;;;7.00;;
4274;SDS011;2151;50.988;11.068;2023-04-25T07:53:54;127.30;;;7.20;;
4274;SDS011;2151;50.988;11.068;2023-04-25T07:56:21;122.80;;;7.00;;
4274;SDS011;2151;50.988;11.068;2023-04-25T07:58:47;123.30;;;7.40;;
4274;SDS011;2151;50.988;11.068;2023-04-25T08:01:14;124.37;;;7.10;;
4274;SDS011;2151;50.988;11.068;2023-04-25T08:03:41;124.27;;;7.70;;
4274;SDS011;2151;50.988;11.068;2023-04-25T08:06:08;123.67;;;7.50;;
4274;SDS011;2151;50.988;11.068;2023-04-25T08:08:35;123.80;;;7.07;;
4274;SDS011;2151;50.988;11.068;2023-04-25T08:11:02;125.93;;;8.00;;
4274;SDS011;2151;50.988;11.068;2023-04-25T08:13:28;124.70;;;7.60;;
4274;SDS011;2151;50.988;11.068;2023-04-25T08:15:54;128.20;;;6.67;;
4274;SDS011;2151;50.988;11.068;2023-04-25T08:18:21;125.13;;;8.10;;
4274;SDS011;2151;50.988;11.068;2023-04-25T08:20:47;128.27;;;7.50;;
4274;SDS011;2151;50.988;11.068;2023-04-25T08:23:14;124.50;;;7.27;;
4274;SDS011;2151;50.988;11.068;2023-04-25T08:25:40;125.40;;;7.37;;
4274;SDS011;2151;50.988;11.068;2023-04-25T08:28:07;125.27;;;7.87;;
4274;SDS011;2151;50.988;11.068;2023-04-25T08:30:33;124.10;;;8.00;;
4274;SDS011;2151;50.988;11.068;2023-04-25T08:32:59;125.37;;;8.00;;
4274;SDS011;2151;50.988;11.068;2023-04-25T08:35:26;125.13;;;7.60;;
4274;SDS011;2151;50.988;11.068;2023-04-25T08:37:52;128.87;;;8.37;;
4274;SDS011;2151;50.988;11.068;2023-04-25T08:40:19;128.10;;;8.20;;
4274;SDS011;2151;50.988;11.068;2023-04-25T08:42:53;124.50;;;7.73;;
4274;SDS011;2151;50.988;11.068;2023-04-25T08:45:20;124.87;;;7.80;;
4274;SDS011;2151;50.988;11.068;2023-04-25T08:47:46;124.60;;;7.67;;
4274;SDS011;2151;50.988;11.068;2023-04-25T08:50:15;125.90;;;7.10;;
4274;SDS011;2151;50.988;11.068;2023-04-25T08:52:45;125.57;;;7.30;;
4274;SDS011;2151;50.988;11.068;2023-04-25T08:55:13;125.87;;;7.20;;
4274;SDS011;2151;50.988;11.068;2023-04-25T08:57:43;123.67;;;6.77;;
4274;SDS011;2151;50.988;11.068;2023-04-25T09:00:10;123.40;;;7.00;;
4274;SDS011;2151;50.988;11.068;2023-04-25T09:02:37;127.37;;;6.73;;
4274;SDS011;2151;50.988;11.068;2023-04-25T09:05:03;124.03;;;7.17;;
4274;SDS011;2151;50.988;11.068;2023-04-25T09:07:30;121.57;;;6.60;;
4274;SDS011;2151;50.988;11.068;2023-04-25T09:09:57;122.37;;;6.23;;
4274;SDS011;2151;50.988;11.068;2023-04-25T09:12:25;123.07;;;7.07;;
4274;SDS011;2151;50.988;11.068;2023-04-25T09:17:54;125.50;;;7.10;;
4274;SDS011;2151;50.988;11.068;2023-04-25T09:20:21;135.33;;;6.87;;
4274;SDS011;2151;50.988;11.068;2023-04-25T09:22:47;127.10;;;7.20;;
4274;SDS011;2151;50.988;11.068;2023-04-25T09:25:13;124.90;;;7.07;;
4274;SDS011;2151;50.988;11.068;2023-04-25T09:27:50;125.27;;;7.30;;
4274;SDS011;2151;50.988;11.068;2023-04-25T09:30:28;126.87;;;7.40;;
4274;SDS011;2151;50.988;11.068;2023-04-25T09:33:03;127.43;;;6.53;;
4274;SDS011;2151;50.988;11.068;2023-04-25T09:35:30;126.47;;;7.00;;
4274;SDS011;2151;50.988;11.068;2023-04-25T09:38:01;126.97;;;6.87;;
4274;SDS011;2151;50.988;11.068;2023-04-25T09:40:27;129.63;;;7.40;;
4274;SDS011;2151;50.988;11.068;2023-04-25T09:42:56;127.47;;;7.10;;
4274;SDS011;2151;50.988;11.068;2023-04-25T09:45:22;129.67;;;7.80;;
4274;SDS011;2151;50.988;11.068;2023-04-25T09:47:49;148.63;;;8.43;;
4274;SDS011;2151;50.988;11.068;2023-04-25T09:50:16;132.17;;;7.80;;
4274;SDS011;2151;50.988;11.068;2023-04-25T09:52:43;136.40;;;8.33;;
4274;SDS011;2151;50.988;11.068;2023-04-25T09:55:09;136.43;;;7.63;;
4274;SDS011;2151;50.988;11.068;2023-04-25T09:57:36;133.47;;;7.67;;
4274;SDS011;2151;50.988;11.068;2023-04-25T10:00:06;140.50;;;7.70;;
4274;SDS011;2151;50.988;11.068;2023-04-25T10:02:38;136.97;;;7.43;;
4274;SDS011;2151;50.988;11.068;2023-04-25T10:05:07;131.87;;;7.80;;
4274;SDS011;2151;50.988;11.068;2023-04-25T10:07:34;128.50;;;7.33;;
4274;SDS011;2151;50.988;11.068;2023-04-25T10:10:02;134.83;;;7.50;;
4274;SDS011;2151;50.988;11.068;2023-04-25T10:12:30;131.67;;;7.60;;
4274;SDS011;2151;50.988;11.068;2023-04-25T10:14:59;131.07;;;7.23;;
4274;SDS011;2151;50.988;11.068;2023-04-25T10:17:26;131.80;;;7.30;;
4274;SDS011;2151;50.988;11.068;2023-04-25T10:19:54;129.63;;;7.70;;
4274;SDS011;2151;50.988;11.068;2023-04-25T10:22:23;132.47;;;8.47;;
4274;SDS011;2151;50.988;11.068;2023-04-25T10:24:52;133.87;;;7.33;;
4274;SDS011;2151;50.988;11.068;2023-04-25T10:27:19;127.63;;;7.00;;
4274;SDS011;2151;50.988;11.068;2023-04-25T10:29:45;130.40;;;7.20;;
4274;SDS011;2151;50.988;11.068;2023-04-25T10:32:26;129.80;;;7.20;;
4274;SDS011;2151;50.988;11.068;2023-04-25T10:34:53;124.07;;;6.60;;
4274;SDS011;2151;50.988;11.068;2023-04-25T10:37:20;132.67;;;6.93;;
4274;SDS011;2151;50.988;11.068;2023-04-25T10:39:47;128.73;;;6.70;;
4274;SDS011;2151;50.988;11.068;2023-04-25T10:42:13;134.73;;;7.30;;
4274;SDS011;2151;50.988;11.068;2023-04-25T10:44:40;132.17;;;7.70;;
4274;SDS011;2151;50.988;11.068;2023-04-25T10:47:07;137.17;;;7.07;;
4274;SDS011;2151;50.988;11.068;2023-04-25T10:49:36;135.57;;;7.83;;
4274;SDS011;2151;50.988;11.068;2023-04-25T10:55:03;129.00;;;7.27;;
4274;SDS011;2151;50.988;11.068;2023-04-25T10:57:38;141.30;;;7.57;;
4274;SDS011;2151;50.988;11.068;2023-04-25T11:00:07;137.77;;;8.30;;
4274;SDS011;2151;50.988;11.068;2023-04-25T11:02:38;128.17;;;7.00;;
4274;SDS011;2151;50.988;11.068;2023-04-25T11:05:07;138.17;;;7.30;;
4274;SDS011;2151;50.988;11.068;2023-04-25T11:07:44;127.57;;;7.07;;
4274;SDS011;2151;50.988;11.068;2023-04-25T11:10:30;126.93;;;7.07;;
4274;SDS011;2151;50.988;11.068;2023-04-25T11:12:57;132.77;;;7.03;;
4274;SDS011;2151;50.988;11.068;2023-04-25T11:15:24;132.90;;;6.97;;
4274;SDS011;2151;50.988;11.068;2023-04-25T11:17:51;128.67;;;6.90;;
4274;SDS011;2151;50.988;11.068;2023-04-25T11:20:17;131.60;;;6.77;;
4274;SDS011;2151;50.988;11.068;2023-04-25T11:22:44;127.03;;;6.30;;
4274;SDS011;2151;50.988;11.068;2023-04-25T11:25:11;127.90;;;6.30;;
4274;SDS011;2151;50.988;11.068;2023-04-25T11:27:48;127.20;;;6.60;;
4274;SDS011;2151;50.988;11.068;2023-04-25T11:30:16;127.40;;;6.83;;
4274;SDS011;2151;50.988;11.068;2023-04-25T11:32:43;126.27;;;6.60;;
4274;SDS011;2151;50.988;11.068;2023-04-25T11:35:10;124.67;;;6.13;;
4274;SDS011;2151;50.988;11.068;2023-04-25T11:37:38;130.63;;;7.93;;
4274;SDS011;2151;50.988;11.068;2023-04-25T11:40:05;123.57;;;6.50;;
4274;SDS011;2151;50.988;11.068;2023-04-25T11:42:39;126.47;;;6.70;;
4274;SDS011;2151;50.988;11.068;2023-04-25T11:45:06;127.63;;;6.30;;
4274;SDS011;2151;50.988;11.068;2023-04-25T11:47:33;125.00;;;6.30;;
4274;SDS011;2151;50.988;11.068;2023-04-25T11:50:00;130.50;;;7.83;;
4274;SDS011;2151;50.988;11.068;2023-04-25T11:55:03;124.47;;;6.40;;
4274;SDS011;2151;50.988;11.068;2023-04-25T11:57:34;126.87;;;7.93;;
4274;SDS011;2151;50.988;11.068;2023-04-25T12:02:41;126.47;;;7.20;;
4274;SDS011;2151;50.988;11.068;2023-04-25T12:05:09;136.03;;;8.37;;
4274;SDS011;2151;50.988;11.068;2023-04-25T12:07:56;131.10;;;7.57;;
4274;SDS011;2151;50.988;11.068;2023-04-25T12:10:23;124.07;;;7.10;;
4274;SDS011;2151;50.988;11.068;2023-04-25T12:12:50;124.80;;;7.40;;
4274;SDS011;2151;50.988;11.068;2023-04-25T12:15:24;128.07;;;6.67;;
4274;SDS011;2151;50.988;11.068;2023-04-25T12:17:51;126.20;;;7.10;;
4274;SDS011;2151;50.988;11.068;2023-04-25T12:20:19;125.10;;;6.50;;
4274;SDS011;2151;50.988;11.068;2023-04-25T12:22:52;122.77;;;6.37;;
4274;SDS011;2151;50.988;11.068;2023-04-25T12:28:17;124.73;;;6.10;;
4274;SDS011;2151;50.988;11.068;2023-04-25T12:33:22;126.37;;;6.27;;
4274;SDS011;2151;50.988;11.068;2023-04-25T12:35:48;124.80;;;6.30;;
4274;SDS011;2151;50.988;11.068;2023-04-25T12:38:21;123.50;;;5.90;;
4274;SDS011;2151;50.988;11.068;2023-04-25T12:40:48;124.20;;;6.50;;
4274;SDS011;2151;50.988;11.068;2023-04-25T12:43:14;129.47;;;6.80;;
4274;SDS011;2151;50.988;11.068;2023-04-25T12:45:41;128.03;;;7.30;;
4274;SDS011;2151;50.988;11.068;2023-04-25T12:48:07;125.50;;;6.23;;
4274;SDS011;2151;50.988;11.068;2023-04-25T12:50:34;129.30;;;6.67;;
4274;SDS011;2151;50.988;11.068;2023-04-25T12:53:00;121.90;;;5.77;;
4274;SDS011;2151;50.988;11.068;2023-04-25T12:55:27;120.77;;;5.80;;
4274;SDS011;2151;50.988;11.068;2023-04-25T12:57:53;119.40;;;6.00;;
4274;SDS011;2151;50.988;11.068;2023-04-25T13:00:19;122.23;;;5.90;;
4274;SDS011;2151;50.988;11.068;2023-04-25T13:02:46;125.07;;;5.70;;
4274;SDS011;2151;50.988;11.068;2023-04-25T13:05:15;121.97;;;6.57;;
4274;SDS011;2151;50.988;11.068;2023-04-25T13:07:42;122.97;;;6.00;;
4274;SDS011;2151;50.988;11.068;2023-04-25T13:10:09;125.47;;;6.30;;
4274;SDS011;2151;50.988;11.068;2023-04-25T13:12:36;124.10;;;5.73;;
4274;SDS011;2151;50.988;11.068;2023-04-25T13:15:03;121.87;;;6.10;;
4274;SDS011;2151;50.988;11.068;2023-04-25T13:17:29;129.97;;;6.33;;
4274;SDS011;2151;50.988;11.068;2023-04-25T13:19:56;123.87;;;5.73;;
4274;SDS011;2151;50.988;11.068;2023-04-25T13:22:22;123.30;;;5.97;;
4274;SDS011;2151;50.988;11.068;2023-04-25T13:24:49;123.13;;;6.40;;
4274;SDS011;2151;50.988;11.068;2023-04-25T13:27:15;122.17;;;6.10;;
4274;SDS011;2151;50.988;11.068;2023-04-25T13:29:41;126.73;;;7.00;;
4274;SDS011;2151;50.988;11.068;2023-04-25T13:32:08;123.80;;;5.93;;
4274;SDS011;2151;50.988;11.068;2023-04-25T13:34:35;121.07;;;6.37;;
4274;SDS011;2151;50.988;11.068;2023-04-25T13:37:01;122.57;;;6.30;;
4274;SDS011;2151;50.988;11.068;2023-04-25T13:39:28;125.00;;;7.10;;
4274;SDS011;2151;50.988;11.068;2023-04-25T13:41:54;124.20;;;7.10;;
4274;SDS011;2151;50.988;11.068;2023-04-25T13:44:22;127.20;;;6.10;;
4274;SDS011;2151;50.988;11.068;2023-04-25T13:46:48;125.77;;;6.00;;
4274;SDS011;2151;50.988;11.068;2023-04-25T13:49:14;127.43;;;6.40;;
4274;SDS011;2151;50.988;11.068;2023-04-25T13:51:41;122.30;;;6.73;;
4274;SDS011;2151;50.988;11.068;2023-04-25T13:54:08;121.90;;;6.30;;
4274;SDS011;2151;50.988;11.068;2023-04-25T13:56:35;120.03;;;6.50;;
4274;SDS011;2151;50.988;11.068;2023-04-25T13:59:01;124.10;;;6.23;;
4274;SDS011;2151;50.988;11.068;2023-04-25T14:01:28;125.53;;;6.70;;
4274;SDS011;2151;50.988;11.068;2023-04-25T14:03:57;122.37;;;5.90;;
4274;SDS011;2151;50.988;11.068;2023-04-25T14:06:24;124.87;;;6.10;;
4274;SDS011;2151;50.988;11.068;2023-04-25T14:08:51;126.07;;;6.70;;
4274;SDS011;2151;50.988;11.068;2023-04-25T14:11:17;125.10;;;6.23;;
4274;SDS011;2151;50.988;11.068;2023-04-25T14:13:44;124.93;;;6.63;;
4274;SDS011;2151;50.988;11.068;2023-04-25T14:16:11;139.17;;;6.10;;
4274;SDS011;2151;50.988;11.068;2023-04-25T14:18:37;121.00;;;6.20;;
4274;SDS011;2151;50.988;11.068;2023-04-25T14:21:04;121.63;;;5.93;;
4274;SDS011;2151;50.988;11.068;2023-04-25T14:23:31;126.30;;;6.90;;
4274;SDS011;2151;50.988;11.068;2023-04-25T14:25:57;122.07;;;6.70;;
4274;SDS011;2151;50.988;11.068;2023-04-25T14:28:24;128.33;;;6.03;;
4274;SDS011;2151;50.988;11.068;2023-04-25T14:30:50;129.67;;;6.17;;
4274;SDS011;2151;50.988;11.068;2023-04-25T14:33:17;123.47;;;6.10;;
4274;SDS011;2151;50.988;11.068;2023-04-25T14:35:43;124.97;;;6.47;;
4274;SDS011;2151;50.988;11.068;2023-04-25T14:38:09;122.20;;;6.10;;
4274;SDS011;2151;50.988;11.068;2023-04-25T14:40:36;121.00;;;5.80;;
4274;SDS011;2151;50.988;11.068;2023-04-25T14:43:03;121.40;;;5.57;;
4274;SDS011;2151;50.988;11.068;2023-04-25T14:45:30;124.77;;;6.30;;
4274;SDS011;2151;50.988;11.068;2023-04-25T14:47:56;121.67;;;5.80;;
4274;SDS011;2151;50.988;11.068;2023-04-25T14:50:23;122.00;;;5.73;;